createdAt,value
2022-08-25T00:02:35.342Z,17.34
2022-08-25T00:05:37.618Z,17.35
2022-08-25T00:08:39.960Z,17.36
2022-08-25T00:11:41.362Z,17.30
2022-08-25T00:14:43.447Z,17.26
2022-08-25T00:17:44.806Z,17.30
2022-08-25T00:20:47.215Z,17.21
2022-08-25T00:23:50.498Z,17.13
2022-08-25T00:26:52.498Z,17.09
2022-08-25T00:29:54.060Z,17.08
2022-08-25T00:32:57.409Z,17.06
2022-08-25T00:35:59.999Z,17.02
2022-08-25T00:39:01.386Z,17.05
2022-08-25T00:42:03.100Z,17.09
2022-08-25T00:45:05.727Z,17.14
2022-08-25T00:48:07.189Z,17.14
2022-08-25T00:51:09.633Z,17.19
2022-08-25T00:54:15.879Z,17.20
2022-08-25T00:57:18.761Z,17.19
2022-08-25T01:00:25.393Z,17.10
2022-08-25T01:03:33.185Z,17.00
2022-08-25T01:06:38.324Z,16.91
2022-08-25T01:09:39.795Z,16.87
2022-08-25T01:12:43.002Z,16.90
2022-08-25T01:15:45.449Z,16.76
2022-08-25T01:18:50.890Z,16.85
2022-08-25T01:21:52.421Z,16.81
2022-08-25T01:24:56.637Z,16.89
2022-08-25T01:27:57.998Z,16.82
2022-08-25T01:30:59.562Z,16.75
2022-08-25T01:34:01.012Z,16.69
2022-08-25T01:37:02.407Z,16.62
2022-08-25T01:40:04.473Z,16.62
2022-08-25T01:43:15.188Z,16.62
2022-08-25T01:46:16.582Z,16.55
2022-08-25T01:49:17.991Z,16.47
2022-08-25T01:52:20.271Z,16.54
2022-08-25T01:55:22.851Z,16.44
2022-08-25T01:58:34.671Z,16.49
2022-08-25T02:01:36.129Z,16.36
2022-08-25T02:04:37.785Z,16.23
2022-08-25T02:07:39.144Z,16.20
2022-08-25T02:10:40.640Z,16.18
2022-08-25T02:13:42.105Z,16.24
2022-08-25T02:16:45.032Z,16.33
2022-08-25T02:19:46.448Z,16.33
2022-08-25T02:22:56.586Z,16.20
2022-08-25T02:25:58.484Z,16.11
2022-08-25T02:28:59.988Z,16.15
2022-08-25T02:32:01.525Z,16.05
2022-08-25T02:35:02.912Z,15.95
2022-08-25T02:38:04.467Z,15.91
2022-08-25T02:41:33.482Z,15.93
2022-08-25T02:44:34.834Z,15.85
2022-08-25T02:47:37.141Z,15.88
2022-08-25T02:50:38.517Z,15.93
2022-08-25T02:53:40.442Z,15.92
2022-08-25T02:56:42.722Z,15.80
2022-08-25T02:59:48.357Z,15.84
2022-08-25T03:02:49.708Z,15.90
2022-08-25T03:05:51.212Z,15.83
2022-08-25T03:08:53.079Z,15.79
2022-08-25T03:11:54.597Z,15.84
2022-08-25T03:14:55.965Z,15.80
2022-08-25T03:17:57.734Z,15.84
2022-08-25T03:21:01.302Z,15.88
2022-08-25T03:24:02.717Z,15.95
2022-08-25T03:27:04.921Z,15.97
2022-08-25T03:30:06.834Z,15.86
2022-08-25T03:33:08.176Z,15.80
2022-08-25T03:36:12.000Z,15.85
2022-08-25T03:39:13.666Z,15.85
2022-08-25T03:42:15.003Z,15.74
2022-08-25T03:45:16.506Z,15.55
2022-08-25T03:48:17.933Z,15.40
2022-08-25T03:51:27.598Z,15.39
2022-08-25T03:54:28.993Z,15.40
2022-08-25T03:57:30.336Z,15.32
2022-08-25T04:00:31.754Z,15.27
2022-08-25T04:03:33.137Z,15.25
2022-08-25T04:06:34.496Z,15.33
2022-08-25T04:09:36.995Z,15.30
2022-08-25T04:12:38.466Z,15.27
2022-08-25T04:15:42.141Z,15.32
2022-08-25T04:18:43.569Z,15.24
2022-08-25T04:21:44.905Z,15.14
2022-08-25T04:24:46.270Z,15.08
2022-08-25T04:27:47.975Z,15.15
2022-08-25T04:30:52.122Z,15.06
2022-08-25T04:33:54.088Z,14.99
2022-08-25T04:36:55.436Z,15.02
2022-08-25T04:39:56.925Z,15.05
2022-08-25T04:42:58.317Z,15.05
2022-08-25T04:45:59.720Z,14.88
2022-08-25T04:49:01.430Z,14.83
2022-08-25T04:52:02.944Z,14.89
2022-08-25T04:55:05.727Z,14.90
2022-08-25T04:58:07.171Z,14.85
2022-08-25T05:01:17.358Z,14.82
2022-08-25T05:04:27.813Z,14.86
2022-08-25T05:07:30.280Z,14.89
2022-08-25T05:10:31.672Z,14.85
2022-08-25T05:13:34.039Z,14.89
2022-08-25T05:16:35.953Z,14.87
2022-08-25T05:19:37.336Z,14.87
2022-08-25T05:22:38.720Z,14.89
2022-08-25T05:25:40.200Z,14.95
2022-08-25T05:28:42.049Z,15.04
2022-08-25T05:31:49.527Z,15.15
2022-08-25T05:34:51.566Z,15.27
2022-08-25T05:37:52.903Z,15.31
2022-08-25T05:40:57.751Z,15.25
2022-08-25T05:43:59.106Z,15.31
2022-08-25T05:47:00.437Z,15.36
2022-08-25T05:50:01.788Z,15.47
2022-08-25T05:53:03.129Z,15.58
2022-08-25T05:56:04.501Z,15.68
2022-08-25T05:59:09.264Z,15.74
2022-08-25T06:02:29.730Z,15.80
2022-08-25T06:05:32.424Z,15.91
2022-08-25T06:08:33.785Z,16.02
2022-08-25T06:11:35.604Z,16.16
2022-08-25T06:14:36.949Z,16.33
2022-08-25T06:17:41.730Z,16.46
2022-08-25T06:20:43.436Z,16.59
2022-08-25T06:23:44.802Z,16.68
2022-08-25T06:26:46.148Z,16.75
2022-08-25T06:29:47.551Z,16.85
2022-08-25T06:32:49.221Z,17.01
2022-08-25T06:35:52.983Z,17.23
2022-08-25T06:38:54.343Z,17.43
2022-08-25T06:41:56.402Z,17.53
2022-08-25T06:44:57.776Z,17.61
2022-08-25T06:47:59.450Z,17.68
2022-08-25T06:51:00.938Z,17.79
2022-08-25T06:54:02.378Z,17.95
2022-08-25T06:57:03.846Z,18.08
2022-08-25T07:00:06.048Z,18.20
2022-08-25T07:03:07.378Z,18.45
2022-08-25T07:06:08.765Z,18.70
2022-08-25T07:09:10.381Z,18.88
2022-08-25T07:12:11.712Z,19.07
2022-08-25T07:15:20.999Z,19.24
2022-08-25T07:18:22.975Z,19.76
2022-08-25T07:21:27.860Z,20.10
2022-08-25T07:24:32.811Z,20.39
2022-08-25T07:27:34.226Z,20.96
2022-08-25T07:30:35.568Z,21.21
2022-08-25T07:33:36.924Z,21.51
2022-08-25T07:36:38.291Z,21.65
2022-08-25T07:39:42.436Z,22.12
2022-08-25T07:42:43.879Z,22.53
2022-08-25T07:45:49.084Z,22.57
2022-08-25T07:48:53.259Z,22.68
2022-08-25T07:52:04.615Z,22.87
2022-08-25T07:55:08.352Z,23.01
2022-08-25T07:58:12.698Z,23.21
2022-08-25T08:01:14.908Z,23.33
2022-08-25T08:04:16.412Z,23.38
2022-08-25T08:07:18.523Z,23.49
2022-08-25T08:13:42.133Z,23.98
2022-08-25T08:16:43.609Z,24.45
2022-08-25T08:19:45.443Z,24.63
2022-08-25T08:22:46.873Z,24.94
2022-08-25T08:25:49.224Z,25.20
2022-08-25T08:28:52.155Z,25.17
2022-08-25T08:31:53.798Z,25.54
2022-08-25T08:34:55.169Z,25.96
2022-08-25T08:37:56.916Z,26.23
2022-08-25T08:41:23.248Z,26.28
2022-08-25T08:44:34.090Z,26.25
2022-08-25T08:47:50.572Z,26.54
2022-08-25T08:50:54.881Z,26.48
2022-08-25T08:53:57.173Z,26.71
2022-08-25T08:57:03.203Z,26.92
2022-08-25T09:00:05.507Z,27.20
2022-08-25T09:03:08.610Z,28.05
2022-08-25T09:06:11.457Z,28.55
2022-08-25T09:09:12.836Z,29.54
2022-08-25T09:12:20.308Z,28.95
2022-08-25T09:15:55.234Z,29.10
2022-08-25T09:19:05.324Z,29.40
2022-08-25T09:22:35.947Z,29.27
2022-08-25T09:25:56.845Z,28.88
2022-08-25T09:29:16.379Z,28.92
2022-08-25T09:32:24.114Z,28.81
2022-08-25T09:35:33.577Z,29.11
2022-08-25T09:38:36.115Z,28.95
2022-08-25T09:41:40.401Z,29.17
2022-08-25T09:44:43.667Z,29.59
2022-08-25T09:47:45.410Z,29.51
2022-08-25T09:50:48.196Z,29.76
2022-08-25T09:53:55.753Z,29.39
2022-08-25T09:56:58.342Z,29.36
2022-08-25T10:00:15.138Z,29.36
2022-08-25T10:03:22.422Z,29.84
2022-08-25T10:06:26.454Z,30.20
2022-08-25T10:09:48.190Z,29.98
2022-08-25T10:13:03.342Z,29.80
2022-08-25T10:16:20.545Z,30.19
2022-08-25T10:19:28.882Z,29.32
2022-08-25T10:22:34.487Z,29.34
2022-08-25T10:25:35.856Z,29.52
2022-08-25T10:28:37.123Z,30.06
2022-08-25T10:31:49.367Z,30.05
2022-08-25T10:34:51.925Z,30.40
2022-08-25T10:37:56.843Z,30.01
2022-08-25T10:41:07.240Z,30.56
2022-08-25T10:44:31.038Z,30.60
2022-08-25T10:47:51.168Z,30.92
2022-08-25T10:51:01.621Z,31.23
2022-08-25T10:54:03.328Z,31.58
2022-08-25T10:57:04.643Z,31.18
2022-08-25T11:00:14.576Z,31.23
2022-08-25T11:03:26.707Z,31.61
2022-08-25T11:06:46.906Z,31.59
2022-08-25T11:09:51.116Z,31.97
2022-08-25T11:12:56.279Z,32.34
2022-08-25T11:16:19.176Z,32.36
2022-08-25T11:19:26.965Z,31.46
2022-08-25T11:22:34.451Z,31.19
2022-08-25T11:25:38.263Z,31.82
2022-08-25T11:28:39.552Z,31.22
2022-08-25T11:31:43.678Z,30.83
2022-08-25T11:34:45.523Z,31.41
2022-08-25T11:38:05.905Z,31.52
2022-08-25T11:41:17.422Z,32.06
2022-08-25T11:44:23.754Z,32.03
2022-08-25T11:47:35.034Z,31.92
2022-08-25T11:50:37.406Z,32.17
2022-08-25T11:53:42.242Z,32.60
2022-08-25T11:56:43.801Z,32.54
2022-08-25T11:59:49.360Z,32.43
2022-08-25T12:02:51.217Z,33.00
2022-08-25T12:06:12.511Z,33.22
2022-08-25T12:09:17.359Z,32.50
2022-08-25T12:12:28.807Z,32.76
2022-08-25T12:15:34.700Z,32.12
2022-08-25T12:18:36.101Z,32.05
2022-08-25T12:21:37.525Z,32.12
2022-08-25T12:24:41.866Z,31.21
2022-08-25T12:27:58.202Z,31.48
2022-08-25T12:31:01.676Z,32.39
2022-08-25T12:34:08.818Z,31.94
2022-08-25T12:37:14.910Z,32.75
2022-08-25T12:40:20.992Z,32.56
2022-08-25T12:43:37.153Z,32.58
2022-08-25T12:46:39.374Z,33.32
2022-08-25T12:49:40.769Z,33.61
2022-08-25T12:52:42.344Z,34.10
2022-08-25T12:55:50.008Z,34.70
2022-08-25T12:59:03.836Z,32.83
2022-08-25T13:02:17.407Z,33.76
2022-08-25T13:05:33.907Z,32.76
2022-08-25T13:08:50.306Z,32.58
2022-08-25T13:11:56.596Z,31.83
2022-08-25T13:14:58.103Z,32.48
2022-08-25T13:18:19.449Z,32.32
2022-08-25T13:21:24.666Z,32.07
2022-08-25T13:27:55.485Z,33.15
2022-08-25T13:31:01.168Z,33.10
2022-08-25T13:34:05.712Z,32.78
2022-08-25T13:37:26.518Z,32.91
2022-08-25T13:40:34.376Z,32.01
2022-08-25T13:43:38.687Z,32.30
2022-08-25T13:46:40.316Z,32.57
2022-08-25T13:49:43.477Z,32.24
2022-08-25T13:52:46.941Z,32.91
2022-08-25T13:55:52.339Z,32.64
2022-08-25T13:58:53.895Z,32.02
2022-08-25T14:01:59.990Z,32.16
2022-08-25T14:05:01.479Z,32.19
2022-08-25T14:08:16.124Z,32.02
2022-08-25T14:11:27.822Z,32.31
2022-08-25T14:14:31.039Z,32.56
2022-08-25T14:17:39.778Z,32.76
2022-08-25T14:20:46.727Z,31.98
2022-08-25T14:23:48.076Z,32.19
2022-08-25T14:26:53.884Z,32.16
2022-08-25T14:29:56.021Z,31.89
2022-08-25T14:32:58.494Z,31.96
2022-08-25T14:35:59.991Z,32.05
2022-08-25T14:39:05.827Z,31.63
2022-08-25T14:42:10.215Z,31.69
2022-08-25T14:45:11.562Z,31.10
2022-08-25T14:48:34.167Z,31.24
2022-08-25T14:51:36.087Z,31.28
2022-08-25T14:54:38.048Z,31.09
2022-08-25T14:57:39.475Z,31.22
2022-08-25T15:00:42.015Z,31.23
2022-08-25T15:03:43.934Z,31.22
2022-08-25T15:06:50.351Z,31.23
2022-08-25T15:09:51.696Z,30.89
2022-08-25T15:12:53.926Z,30.71
2022-08-25T15:15:58.029Z,30.85
2022-08-25T15:18:59.865Z,30.89
2022-08-25T15:22:01.247Z,30.90
2022-08-25T15:25:02.664Z,30.77
2022-08-25T15:28:05.482Z,30.66
2022-08-25T15:31:12.325Z,30.53
2022-08-25T15:34:13.927Z,30.32
2022-08-25T15:37:15.785Z,30.49
2022-08-25T15:40:18.013Z,30.41
2022-08-25T15:43:19.366Z,30.38
2022-08-25T15:46:20.884Z,30.16
2022-08-25T15:49:23.564Z,30.17
2022-08-25T15:52:31.010Z,30.44
2022-08-25T15:55:46.092Z,30.39
2022-08-25T15:58:49.736Z,30.29
2022-08-25T16:01:53.754Z,30.11
2022-08-25T16:04:55.541Z,30.14
2022-08-25T16:07:56.917Z,30.10
2022-08-25T16:10:58.579Z,30.03
2022-08-25T16:14:00.141Z,30.04
2022-08-25T16:17:01.510Z,29.91
2022-08-25T16:20:03.134Z,29.83
2022-08-25T16:23:07.916Z,29.86
2022-08-25T16:26:09.817Z,29.87
2022-08-25T16:29:12.413Z,29.84
2022-08-25T16:32:14.076Z,29.84
2022-08-25T16:35:15.437Z,29.85
2022-08-25T16:38:16.786Z,29.73
2022-08-25T16:41:19.265Z,29.73
2022-08-25T16:44:22.412Z,29.69
2022-08-25T16:47:25.242Z,29.56
2022-08-25T16:50:30.460Z,29.58
2022-08-25T16:53:54.859Z,29.56
2022-08-25T16:56:57.500Z,29.44
2022-08-25T16:59:58.903Z,29.42
2022-08-25T17:03:01.043Z,29.43
2022-08-25T17:06:02.451Z,29.39
2022-08-25T17:09:03.935Z,29.32
2022-08-25T17:12:09.055Z,29.14
2022-08-25T17:15:10.687Z,29.02
2022-08-25T17:18:12.759Z,28.97
2022-08-25T17:21:16.102Z,28.87
2022-08-25T17:24:29.379Z,28.78
2022-08-25T17:27:33.039Z,28.73
2022-08-25T17:30:34.385Z,28.63
2022-08-25T17:33:36.009Z,28.51
2022-08-25T17:36:37.965Z,28.37
2022-08-25T17:39:41.203Z,28.18
2022-08-25T17:42:42.578Z,28.03
2022-08-25T17:45:44.726Z,27.91
2022-08-25T17:48:46.117Z,27.64
2022-08-25T17:51:47.516Z,27.39
2022-08-25T17:54:48.870Z,27.18
2022-08-25T17:57:50.525Z,26.98
2022-08-25T18:00:51.889Z,26.62
2022-08-25T18:03:53.415Z,26.44
2022-08-25T18:06:54.788Z,26.03
2022-08-25T18:09:56.450Z,25.82
2022-08-25T18:12:58.164Z,25.61
2022-08-25T18:16:01.583Z,25.47
2022-08-25T18:19:04.272Z,25.34
2022-08-25T18:22:10.747Z,25.19
2022-08-25T18:25:12.697Z,24.94
2022-08-25T18:28:14.051Z,24.81
2022-08-25T18:31:15.767Z,24.62
2022-08-25T18:34:22.205Z,24.42
2022-08-25T18:37:42.417Z,24.34
2022-08-25T18:40:43.942Z,24.19
2022-08-25T18:43:45.894Z,24.08
2022-08-25T18:46:47.620Z,23.97
2022-08-25T18:49:49.524Z,23.81
2022-08-25T18:52:50.909Z,23.63
2022-08-25T18:55:56.538Z,23.46
2022-08-25T18:58:57.949Z,23.23
2022-08-25T19:01:59.706Z,23.01
2022-08-25T19:05:07.744Z,22.90
2022-08-25T19:08:13.426Z,22.92
2022-08-25T19:11:22.381Z,22.81
2022-08-25T19:14:23.933Z,22.79
2022-08-25T19:17:27.832Z,22.87
2022-08-25T19:20:38.860Z,22.62
2022-08-25T19:23:40.817Z,22.50
2022-08-25T19:26:42.884Z,22.40
2022-08-25T19:29:44.703Z,22.28
2022-08-25T19:32:46.430Z,22.07
2022-08-25T19:35:48.708Z,22.07
2022-08-25T19:38:51.849Z,21.98
2022-08-25T19:41:53.687Z,21.95
2022-08-25T19:44:55.035Z,21.85
2022-08-25T19:47:56.480Z,21.78
2022-08-25T19:50:59.351Z,21.65
2022-08-25T19:54:02.687Z,21.44
2022-08-25T19:57:07.906Z,21.40
2022-08-25T20:00:17.234Z,21.42
2022-08-25T20:03:20.484Z,21.29
2022-08-25T20:06:22.312Z,21.29
2022-08-25T20:09:39.479Z,21.38
2022-08-25T20:12:44.558Z,21.30
2022-08-25T20:15:46.650Z,21.34
2022-08-25T20:18:48.015Z,21.17
2022-08-25T20:21:49.380Z,21.01
2022-08-25T20:24:56.104Z,20.93
2022-08-25T20:27:59.162Z,20.99
2022-08-25T20:31:00.689Z,20.84
2022-08-25T20:34:03.014Z,20.72
2022-08-25T20:37:04.664Z,20.69
2022-08-25T20:40:08.900Z,20.54
2022-08-25T20:43:12.036Z,20.36
2022-08-25T20:46:13.583Z,20.26
2022-08-25T20:49:14.963Z,20.20
2022-08-25T20:52:17.054Z,20.08
2022-08-25T20:55:18.966Z,20.09
2022-08-25T20:58:20.778Z,20.06
2022-08-25T21:01:23.705Z,20.10
2022-08-25T21:04:25.446Z,20.22
2022-08-25T21:07:26.792Z,20.26
2022-08-25T21:10:29.663Z,20.27
2022-08-25T21:13:32.610Z,20.08
2022-08-25T21:16:36.659Z,19.79
2022-08-25T21:19:38.403Z,19.78
2022-08-25T21:22:41.332Z,19.85
2022-08-25T21:25:42.714Z,19.69
2022-08-25T21:28:47.648Z,19.49
2022-08-25T21:31:49.492Z,19.54
2022-08-25T21:34:55.239Z,19.37
2022-08-25T21:37:57.675Z,19.09
2022-08-25T21:40:59.530Z,18.95
2022-08-25T21:44:01.387Z,18.90
2022-08-25T21:47:03.138Z,18.94
2022-08-25T21:50:04.958Z,19.02
2022-08-25T21:53:06.820Z,18.95
2022-08-25T21:56:10.473Z,18.94
2022-08-25T21:59:12.757Z,18.97
2022-08-25T22:02:19.189Z,18.84
2022-08-25T22:05:23.663Z,18.70
2022-08-25T22:08:30.359Z,18.66
2022-08-25T22:11:36.039Z,18.62
2022-08-25T22:14:37.691Z,18.71
2022-08-25T22:17:39.100Z,18.76
2022-08-25T22:20:41.458Z,18.77
2022-08-25T22:23:44.244Z,18.62
2022-08-25T22:26:47.714Z,18.52
2022-08-25T22:29:50.812Z,18.59
2022-08-25T22:32:52.370Z,18.34
2022-08-25T22:35:55.985Z,18.13
2022-08-25T22:39:01.504Z,18.00
2022-08-25T22:42:03.251Z,17.90
2022-08-25T22:45:04.773Z,17.84
2022-08-25T22:48:06.209Z,17.78
2022-08-25T22:51:09.361Z,17.74
2022-08-25T22:54:14.792Z,17.70
2022-08-25T22:57:16.234Z,17.71
2022-08-25T23:00:20.282Z,17.75
2022-08-25T23:03:21.725Z,17.80
2022-08-25T23:06:24.742Z,17.74
2022-08-25T23:09:26.491Z,17.70
2022-08-25T23:12:27.862Z,17.66
2022-08-25T23:15:29.522Z,17.74
2022-08-25T23:18:30.928Z,17.75
2022-08-25T23:21:52.495Z,17.66
2022-08-25T23:24:53.952Z,17.52
2022-08-25T23:27:55.363Z,17.46
2022-08-25T23:30:59.089Z,17.32
2022-08-25T23:34:00.958Z,17.27
2022-08-25T23:37:04.381Z,17.18
2022-08-25T23:40:06.280Z,17.19
2022-08-25T23:43:09.341Z,17.20
2022-08-25T23:46:11.020Z,17.16
2022-08-25T23:49:12.397Z,17.16
2022-08-25T23:52:17.189Z,17.10
2022-08-25T23:55:18.644Z,17.03
2022-08-25T23:58:19.996Z,17.00
